Time;durP1;ratioP1;P1;durP2;ratioP2;P2;SDS_P1;SDS_P2;PMS_P1;PMS_P2;Temp;Humidity;BMP_temperature;BMP_pressure;BME280_temperature;BME280_humidity;BME280_pressure;Samples;Min_cycle;Max_cycle;Signal;HPM_P1;HPM_P2
2023/03/18 00:00:10;;;;;;;5.60;5.10;;;;;;;10.06;100.00;99773.91;5004935;28;20522;-48
2023/03/18 00:02:38;;;;;;;5.30;4.90;;;;;;;10.03;100.00;99769.56;5000325;28;20478;-48
2023/03/18 00:05:07;;;;;;;5.40;4.70;;;;;;;9.91;100.00;99772.63;5007283;28;20494;-48
2023/03/18 00:07:35;;;;;;;5.30;4.33;;;;;;;9.93;100.00;99767.28;5002192;28;20448;-48
2023/03/18 00:10:03;;;;;;;3.97;3.70;;;;;;;10.01;100.00;99767.88;4999384;28;20476;-48
2023/03/18 00:12:31;;;;;;;2.87;2.60;;;;;;;10.14;100.00;99762.97;5003740;28;20896;-48
2023/03/18 00:14:58;;;;;;;7.57;3.20;;;;;;;10.38;100.00;99768.31;5006591;28;20472;-47
2023/03/18 00:17:25;;;;;;;2.77;2.57;;;;;;;10.10;100.00;99765.75;5002828;28;20449;-48
2023/03/18 00:19:51;;;;;;;5.13;4.03;;;;;;;10.12;100.00;99778.09;4999337;28;20563;-48
2023/03/18 00:22:18;;;;;;;5.60;5.07;;;;;;;10.11;100.00;99766.63;5002968;28;20883;-49
2023/03/18 00:24:45;;;;;;;3.13;2.93;;;;;;;10.06;100.00;99777.41;5006266;28;20581;-48
2023/03/18 00:27:11;;;;;;;6.23;3.20;;;;;;;9.95;100.00;99774.25;5002787;28;20976;-48
2023/03/18 00:29:38;;;;;;;6.67;3.40;;;;;;;9.97;100.00;99776.84;4999318;28;20449;-49
2023/03/18 00:32:05;;;;;;;5.60;3.10;;;;;;;10.02;100.00;99785.56;5002789;28;20528;-48
2023/03/18 00:34:32;;;;;;;3.00;2.73;;;;;;;10.07;100.00;99784.47;4998973;28;20818;-48
2023/03/18 00:36:59;;;;;;;6.13;2.20;;;;;;;10.11;100.00;99790.53;5002306;28;20965;-48
2023/03/18 00:39:27;;;;;;;4.80;3.43;;;;;;;10.21;100.00;99778.69;5005874;28;20454;-47
2023/03/18 00:41:55;;;;;;;2.93;2.83;;;;;;;10.10;100.00;99786.13;5003667;28;20468;-49
2023/03/18 00:44:24;;;;;;;4.10;3.53;;;;;;;10.06;100.00;99790.69;4994744;28;20485;-48
2023/03/18 00:46:50;;;;;;;2.90;2.70;;;;;;;9.95;100.00;99791.97;5004682;28;20565;-48
2023/03/18 00:49:17;;;;;;;3.20;3.00;;;;;;;10.04;100.00;99795.19;4999186;28;20452;-48
2023/03/18 00:51:45;;;;;;;4.90;3.23;;;;;;;9.88;100.00;99787.81;4994245;28;20561;-48
2023/03/18 00:54:16;;;;;;;1.80;1.70;;;;;;;9.99;100.00;99796.25;4997465;28;20456;-48
2023/03/18 00:56:43;;;;;;;2.47;2.27;;;;;;;9.99;100.00;99797.13;4999360;28;20464;-48
2023/03/18 00:59:09;;;;;;;9.90;4.07;;;;;;;9.97;100.00;99787.47;5005577;28;21026;-47
2023/03/18 01:01:37;;;;;;;2.80;2.40;;;;;;;9.83;100.00;99787.06;5005364;28;20472;-47
2023/03/18 01:04:05;;;;;;;3.57;3.27;;;;;;;9.92;100.00;99794.75;4986633;28;20492;-48
2023/03/18 01:06:33;;;;;;;2.20;2.10;;;;;;;9.97;100.00;99790.13;5005596;28;20491;-49
2023/03/18 01:09:01;;;;;;;8.40;2.40;;;;;;;10.02;100.00;99785.56;4999729;28;20452;-48
2023/03/18 01:11:28;;;;;;;2.23;2.03;;;;;;;9.99;100.00;99785.63;4997154;28;20886;-48
2023/03/18 01:13:54;;;;;;;3.20;2.13;;;;;;;9.92;100.00;99781.47;5004257;28;20453;-48
2023/03/18 01:16:22;;;;;;;3.03;2.37;;;;;;;9.98;100.00;99779.44;5005173;28;20460;-48
2023/03/18 01:18:49;;;;;;;3.90;3.13;;;;;;;9.87;100.00;99770.13;5000196;28;20452;-48
2023/03/18 01:21:16;;;;;;;2.50;2.17;;;;;;;9.73;100.00;99759.97;4998447;28;20888;-48
2023/03/18 01:23:44;;;;;;;1.73;1.63;;;;;;;9.79;100.00;99773.91;5003887;28;20450;-47
2023/03/18 01:26:11;;;;;;;1.23;1.13;;;;;;;9.87;100.00;99772.78;5005088;28;21065;-48
2023/03/18 01:28:37;;;;;;;6.70;1.23;;;;;;;10.00;100.00;99771.44;5000544;28;20447;-48
2023/03/18 01:31:04;;;;;;;2.40;2.27;;;;;;;9.99;100.00;99767.03;4998337;28;20829;-48
2023/03/18 01:33:32;;;;;;;2.40;2.30;;;;;;;9.84;100.00;99767.56;5008621;28;20455;-48
2023/03/18 01:36:01;;;;;;;4.10;3.70;;;;;;;9.80;100.00;99765.03;4998630;28;20468;-48
2023/03/18 01:38:31;;;;;;;2.47;2.37;;;;;;;9.91;100.00;99767.31;5001959;28;20456;-48
2023/03/18 01:40:59;;;;;;;5.57;2.53;;;;;;;10.01;100.00;99762.56;5004922;28;20465;-48
2023/03/18 01:43:35;;;;;;;2.30;2.00;;;;;;;9.94;100.00;99755.72;5002249;28;20471;-48
2023/03/18 01:46:38;;;;;;;3.13;2.90;;;;;;;9.97;100.00;99759.13;4998419;28;20488;-47
2023/03/18 01:49:14;;;;;;;4.60;3.87;;;;;;;9.93;100.00;99757.50;4998285;28;20444;-47
2023/03/18 01:51:59;;;;;;;4.77;4.47;;;;;;;9.78;100.00;99758.03;4993927;28;20482;-47
2023/03/18 01:54:29;;;;;;;4.07;3.77;;;;;;;9.86;100.00;99752.47;4987643;28;20456;-48
2023/03/18 01:56:56;;;;;;;5.67;4.20;;;;;;;9.85;100.00;99759.56;4996780;28;20445;-48
2023/03/18 01:59:27;;;;;;;2.57;2.37;;;;;;;9.86;100.00;99755.97;5003192;28;20536;-48
2023/03/18 02:02:05;;;;;;;6.60;2.00;;;;;;;9.86;100.00;99753.31;5004437;28;20560;-47
2023/03/18 02:04:38;;;;;;;2.33;2.23;;;;;;;9.89;100.00;99752.38;4994742;28;20452;-48
2023/03/18 02:07:06;;;;;;;1.80;1.70;;;;;;;9.93;100.00;99738.06;5004619;28;20445;-47
2023/03/18 02:09:33;;;;;;;4.00;3.03;;;;;;;9.79;100.00;99744.72;5003992;28;20513;-48
2023/03/18 02:12:00;;;;;;;4.17;3.23;;;;;;;9.85;100.00;99750.72;4997605;28;20473;-47
2023/03/18 02:14:27;;;;;;;1.50;1.40;;;;;;;9.89;100.00;99749.72;4998503;28;20449;-49
2023/03/18 02:17:09;;;;;;;3.40;3.20;;;;;;;9.90;100.00;99754.09;5004752;28;20445;-48
2023/03/18 02:19:49;;;;;;;3.00;2.33;;;;;;;9.93;100.00;99765.47;5004443;28;20551;-49
2023/03/18 02:22:38;;;;;;;1.50;1.40;;;;;;;9.96;100.00;99760.06;5000859;28;20834;-48
2023/03/18 02:25:38;;;;;;;11.10;2.47;;;;;;;9.98;100.00;99765.31;4997558;28;20496;-49
2023/03/18 02:28:16;;;;;;;4.07;3.67;;;;;;;9.93;100.00;99778.75;4997652;28;20449;-49
2023/03/18 02:30:47;;;;;;;3.50;2.83;;;;;;;9.88;100.00;99796.63;4998221;28;20962;-47
2023/03/18 02:33:18;;;;;;;3.60;2.50;;;;;;;9.91;100.00;99798.31;5007396;28;20457;-48
2023/03/18 02:35:46;;;;;;;4.60;3.80;;;;;;;9.89;100.00;99802.81;4997356;28;20863;-48
2023/03/18 02:38:12;;;;;;;3.17;2.57;;;;;;;9.90;100.00;99792.16;5003544;28;20524;-49
2023/03/18 02:40:40;;;;;;;4.40;3.63;;;;;;;9.86;100.00;99802.91;5004218;28;20487;-48
2023/03/18 02:43:21;;;;;;;2.47;2.07;;;;;;;9.64;100.00;99795.66;4998953;28;20452;-48
2023/03/18 02:46:00;;;;;;;4.70;2.20;;;;;;;9.35;100.00;99783.34;4997262;28;20486;-47
2023/03/18 02:48:33;;;;;;;3.53;2.60;;;;;;;9.46;100.00;99797.13;4999010;28;20450;-48
2023/03/18 02:51:00;;;;;;;3.03;2.83;;;;;;;9.48;100.00;99784.69;5003895;28;20469;-48
2023/03/18 02:53:26;;;;;;;5.13;3.40;;;;;;;9.63;100.00;99780.66;4996849;28;20452;-48
2023/03/18 02:55:53;;;;;;;13.60;2.50;;;;;;;9.65;100.00;99785.91;4997043;28;20939;-48
2023/03/18 02:58:19;;;;;;;3.00;2.80;;;;;;;9.64;100.00;99790.34;4997780;28;20461;-48
2023/03/18 03:00:46;;;;;;;2.70;2.50;;;;;;;9.61;100.00;99781.63;5002949;28;20491;-48
2023/03/18 03:03:12;;;;;;;2.40;2.20;;;;;;;9.65;100.00;99791.22;5000055;28;20456;-47
2023/03/18 03:05:39;;;;;;;3.30;2.23;;;;;;;9.64;100.00;99794.78;5002543;28;20492;-48
2023/03/18 03:08:05;;;;;;;3.60;3.30;;;;;;;9.62;100.00;99792.19;5003041;28;20455;-47
2023/03/18 03:10:32;;;;;;;5.23;3.00;;;;;;;9.62;100.00;99788.66;4996855;28;20508;-49
2023/03/18 03:12:59;;;;;;;3.70;3.50;;;;;;;9.70;100.00;99797.22;4997482;28;20464;-48
2023/03/18 03:15:26;;;;;;;3.80;2.77;;;;;;;9.62;100.00;99791.31;5003827;28;20451;-48
2023/03/18 03:17:52;;;;;;;4.97;3.53;;;;;;;9.55;100.00;99801.25;5003423;28;20509;-48
2023/03/18 03:20:19;;;;;;;3.47;3.27;;;;;;;9.56;100.00;99804.78;4996676;28;20473;-48
2023/03/18 03:22:46;;;;;;;5.77;2.87;;;;;;;9.72;100.00;99809.53;4997016;28;20453;-48
2023/03/18 03:25:13;;;;;;;3.70;3.40;;;;;;;9.76;100.00;99812.97;5003259;28;20454;-49
2023/03/18 03:27:40;;;;;;;17.87;2.80;;;;;;;9.64;100.00;99808.06;5003570;28;20453;-48
2023/03/18 03:30:10;;;;;;;3.03;2.83;;;;;;;9.61;100.00;99801.06;4997300;28;20480;-48
2023/03/18 03:32:38;;;;;;;5.70;2.50;;;;;;;9.52;100.00;99801.34;4996595;28;20464;-47
2023/03/18 03:35:07;;;;;;;1.80;1.70;;;;;;;9.47;100.00;99798.00;4998292;28;20453;-48
2023/03/18 03:37:34;;;;;;;5.60;3.90;;;;;;;9.17;100.00;99794.50;4996653;28;20541;-48
2023/03/18 03:40:05;;;;;;;3.10;2.37;;;;;;;9.23;100.00;99794.31;5001135;28;20470;-48
2023/03/18 03:42:31;;;;;;;1.30;1.20;;;;;;;9.27;100.00;99798.59;5003149;28;20579;-49
2023/03/18 03:44:58;;;;;;;3.23;2.13;;;;;;;9.22;100.00;99802.34;4990427;28;20449;-47
2023/03/18 03:47:24;;;;;;;2.40;2.20;;;;;;;9.14;100.00;99791.94;5003295;28;20499;-49
2023/03/18 03:49:51;;;;;;;3.47;3.10;;;;;;;9.14;100.00;99803.41;5000298;28;20834;-48
2023/03/18 03:52:18;;;;;;;2.33;2.03;;;;;;;8.91;100.00;99800.63;4985925;28;20981;-48
2023/03/18 03:54:45;;;;;;;13.33;2.53;;;;;;;9.10;100.00;99803.56;5000649;28;20878;-48
2023/03/18 03:57:12;;;;;;;1.57;1.47;;;;;;;9.13;100.00;99806.13;4996489;28;20448;-48
2023/03/18 03:59:39;;;;;;;4.70;4.17;;;;;;;8.87;100.00;99802.47;4998592;28;20453;-48
2023/03/18 04:02:05;;;;;;;2.90;2.17;;;;;;;8.76;100.00;99801.03;5003038;28;20464;-48
2023/03/18 04:04:32;;;;;;;6.63;2.53;;;;;;;8.63;100.00;99805.81;4992554;28;20935;-48
2023/03/18 04:06:59;;;;;;;4.47;2.90;;;;;;;8.48;100.00;99807.13;5002565;28;20556;-48
2023/03/18 04:09:25;;;;;;;2.33;1.80;;;;;;;8.32;100.00;99819.03;5001348;28;20452;-48
2023/03/18 04:11:52;;;;;;;8.50;3.50;;;;;;;8.24;100.00;99819.25;4995980;28;20989;-48
2023/03/18 04:14:19;;;;;;;2.10;1.47;;;;;;;8.13;100.00;99821.31;4986469;28;20822;-47
2023/03/18 04:16:45;;;;;;;2.87;2.77;;;;;;;8.28;100.00;99825.31;4993689;28;20459;-47
2023/03/18 04:19:11;;;;;;;2.50;2.30;;;;;;;8.27;100.00;99827.09;4997523;28;20860;-48
2023/03/18 04:21:38;;;;;;;2.70;2.57;;;;;;;8.03;100.00;99819.78;5002430;28;20857;-48
2023/03/18 04:24:05;;;;;;;3.50;3.23;;;;;;;8.06;100.00;99827.66;5000759;28;20452;-48
2023/03/18 04:26:31;;;;;;;5.00;2.80;;;;;;;7.93;100.00;99818.28;4995963;28;20488;-49
2023/03/18 04:28:58;;;;;;;3.87;3.47;;;;;;;8.03;100.00;99825.94;4995766;28;20454;-48
2023/03/18 04:31:24;;;;;;;2.00;1.90;;;;;;;8.22;100.00;99830.75;5002456;28;20703;-48
2023/03/18 04:33:51;;;;;;;5.03;1.40;;;;;;;8.15;100.00;99837.13;4993849;28;20485;-48
2023/03/18 04:36:17;;;;;;;1.43;1.40;;;;;;;8.25;100.00;99839.50;5002340;28;20460;-48
2023/03/18 04:38:43;;;;;;;3.10;2.30;;;;;;;8.09;100.00;99838.19;5002385;28;20979;-48
2023/03/18 04:41:10;;;;;;;1.90;1.60;;;;;;;8.14;100.00;99840.69;4995681;28;21004;-48
2023/03/18 04:43:36;;;;;;;2.93;2.73;;;;;;;8.18;100.00;99845.00;4996258;28;20801;-47
2023/03/18 04:46:03;;;;;;;1.50;1.40;;;;;;;8.25;100.00;99849.22;4997334;28;20491;-48
2023/03/18 04:48:29;;;;;;;2.27;2.17;;;;;;;8.26;100.00;99857.13;4998849;28;20460;-48
2023/03/18 04:50:56;;;;;;;3.00;1.70;;;;;;;8.24;100.00;99845.72;5005787;28;20974;-48
2023/03/18 04:53:22;;;;;;;1.90;1.80;;;;;;;8.26;100.00;99853.63;4986078;28;20853;-49
2023/03/18 04:55:50;;;;;;;7.67;3.07;;;;;;;8.32;100.00;99850.78;5005517;28;20938;-48
2023/03/18 04:58:16;;;;;;;3.00;2.43;;;;;;;8.28;100.00;99854.44;5019083;22;20441;-53
2023/03/18 05:00:43;;;;;;;2.47;2.23;;;;;;;8.27;100.00;99850.94;4947655;28;20555;-53
2023/03/18 05:03:11;;;;;;;3.70;2.80;;;;;;;8.32;100.00;99850.78;4945674;28;20462;-53
2023/03/18 05:05:37;;;;;;;1.53;1.43;;;;;;;8.36;100.00;99848.97;4929133;29;20455;-53
2023/03/18 05:08:04;;;;;;;2.40;1.07;;;;;;;8.36;100.00;99849.84;4940979;28;20456;-53
2023/03/18 05:10:31;;;;;;;1.17;1.00;;;;;;;8.46;100.00;99850.47;4935084;28;20456;-53
2023/03/18 05:12:57;;;;;;;3.20;1.53;;;;;;;8.31;100.00;99849.06;4934838;29;20563;-53
2023/03/18 05:15:24;;;;;;;2.50;2.37;;;;;;;8.38;100.00;99855.97;4935394;28;20460;-53
2023/03/18 05:17:51;;;;;;;0.97;0.97;;;;;;;8.30;100.00;99848.19;4934685;28;20812;-53
2023/03/18 05:20:18;;;;;;;1.47;1.37;;;;;;;8.26;100.00;99846.53;4935383;29;20472;-53
2023/03/18 05:22:44;;;;;;;2.50;2.37;;;;;;;8.23;100.00;99841.34;4935090;29;20892;-53
2023/03/18 05:25:11;;;;;;;1.23;1.13;;;;;;;8.13;100.00;99847.78;4935424;28;20470;-53
2023/03/18 05:27:39;;;;;;;8.00;1.77;;;;;;;7.97;100.00;99834.06;4935157;28;20495;-53
2023/03/18 05:30:08;;;;;;;1.77;1.67;;;;;;;8.01;100.00;99848.94;4935359;29;20476;-53
2023/03/18 05:32:35;;;;;;;0.87;0.80;;;;;;;8.25;100.00;99842.16;4934826;28;20460;-58
2023/03/18 05:35:02;;;;;;;1.00;1.00;;;;;;;7.98;100.00;99850.81;4934861;29;20460;-52
2023/03/18 05:37:29;;;;;;;1.10;1.00;;;;;;;7.76;100.00;99844.31;4935291;29;20864;-52
2023/03/18 05:39:55;;;;;;;1.50;1.40;;;;;;;7.73;100.00;99856.69;4935308;28;20475;-52
2023/03/18 05:42:22;;;;;;;7.83;1.97;;;;;;;7.65;100.00;99848.06;4935219;28;20567;-51
2023/03/18 05:44:49;;;;;;;1.70;1.60;;;;;;;7.46;100.00;99846.78;4926909;28;20471;-52
2023/03/18 05:47:15;;;;;;;2.00;1.50;;;;;;;7.42;100.00;99853.91;4931401;29;20504;-52
2023/03/18 05:49:42;;;;;;;2.13;2.03;;;;;;;7.29;100.00;99854.22;4935828;28;20541;-51
2023/03/18 05:52:09;;;;;;;1.77;1.67;;;;;;;7.22;100.00;99852.59;4929067;29;20461;-51
2023/03/18 05:54:35;;;;;;;0.93;0.70;;;;;;;7.11;100.00;99856.34;4935819;28;20876;-51
2023/03/18 05:57:02;;;;;;;1.20;1.10;;;;;;;7.04;100.00;99857.38;4933944;28;20449;-51
2023/03/18 05:59:30;;;;;;;0.70;0.70;;;;;;;6.87;100.00;99861.28;4935093;28;20836;-52
2023/03/18 06:01:56;;;;;;;1.30;1.20;;;;;;;6.86;100.00;99859.56;4935818;29;20475;-54
2023/03/18 06:04:23;;;;;;;0.80;0.80;;;;;;;6.92;100.00;99854.13;4936227;28;21019;-52
2023/03/18 06:06:50;;;;;;;5.70;1.30;;;;;;;6.88;100.00;99863.03;4935219;29;20507;-52
2023/03/18 06:09:16;;;;;;;1.10;1.00;;;;;;;6.91;100.00;99855.91;4935352;28;20591;-52
2023/03/18 06:11:44;;;;;;;4.93;1.47;;;;;;;6.91;100.00;99858.53;4935430;29;20456;-52
2023/03/18 06:14:11;;;;;;;3.13;1.67;;;;;;;6.88;100.00;99865.69;4935304;28;20492;-52
2023/03/18 06:16:38;;;;;;;3.70;3.47;;;;;;;6.95;100.00;99859.34;4935722;29;20456;-51
2023/03/18 06:19:05;;;;;;;3.10;2.80;;;;;;;6.94;100.00;99868.19;4935506;28;20482;-52
2023/03/18 06:21:32;;;;;;;2.80;1.50;;;;;;;6.92;100.00;99865.56;4935069;28;20460;-52
2023/03/18 06:24:00;;;;;;;1.67;1.57;;;;;;;7.00;100.00;99868.06;4933834;28;20826;-52
2023/03/18 06:26:27;;;;;;;2.30;2.20;;;;;;;7.06;100.00;99867.94;4934729;28;20496;-52
2023/03/18 06:28:53;;;;;;;1.33;1.23;;;;;;;7.06;100.00;99874.06;4934853;29;20530;-52
2023/03/18 06:31:21;;;;;;;1.00;1.00;;;;;;;7.11;100.00;99876.63;4934893;28;20814;-52
2023/03/18 06:33:48;;;;;;;1.70;1.27;;;;;;;7.20;100.00;99875.56;4935153;29;20456;-52
2023/03/18 06:36:15;;;;;;;1.13;0.90;;;;;;;7.21;100.00;99891.38;4935104;28;20457;-51
2023/03/18 06:38:42;;;;;;;1.13;1.13;;;;;;;7.21;100.00;99888.75;4934691;29;20472;-51
2023/03/18 06:41:10;;;;;;;3.00;2.13;;;;;;;7.22;100.00;99879.91;4934691;29;20536;-52
2023/03/18 06:43:37;;;;;;;0.40;0.40;;;;;;;7.26;100.00;99889.50;4935112;29;20807;-51
2023/03/18 06:46:04;;;;;;;7.00;2.23;;;;;;;7.45;100.00;99892.63;4921955;28;20475;-52
2023/03/18 06:48:31;;;;;;;1.07;0.60;;;;;;;7.49;100.00;99894.28;4934977;29;20559;-52
2023/03/18 06:50:58;;;;;;;1.93;1.63;;;;;;;7.68;100.00;99900.06;4934472;29;20982;-51
2023/03/18 06:53:26;;;;;;;2.00;0.87;;;;;;;7.86;100.00;99898.75;4927596;29;20467;-51
2023/03/18 06:55:52;;;;;;;2.07;1.97;;;;;;;7.94;100.00;99894.97;4933989;29;20456;-52
2023/03/18 06:58:19;;;;;;;7.57;1.57;;;;;;;7.99;100.00;99893.13;4933074;28;20455;-53
2023/03/18 07:00:46;;;;;;;3.50;3.27;;;;;;;8.01;100.00;99904.53;4909357;29;20456;-53
2023/03/18 07:03:14;;;;;;;3.97;3.60;;;;;;;8.07;100.00;99903.50;4934212;28;20548;-52
2023/03/18 07:05:41;;;;;;;1.80;1.70;;;;;;;8.09;100.00;99901.72;4934230;29;20464;-52
2023/03/18 07:08:08;;;;;;;2.97;2.73;;;;;;;8.25;100.00;99907.47;4933498;28;20583;-52
2023/03/18 07:10:34;;;;;;;1.97;1.83;;;;;;;8.37;100.00;99911.63;4933750;29;20460;-52
2023/03/18 07:13:01;;;;;;;2.23;2.13;;;;;;;8.55;100.00;99909.38;4933077;28;20570;-52
2023/03/18 07:15:28;;;;;;;5.00;2.87;;;;;;;8.60;100.00;99912.75;4915582;29;20462;-52
2023/03/18 07:17:54;;;;;;;2.73;2.40;;;;;;;8.78;100.00;99915.84;4904832;28;20549;-52
2023/03/18 07:20:21;;;;;;;2.27;2.07;;;;;;;9.09;100.00;99918.50;4932672;28;20479;-53
2023/03/18 07:22:48;;;;;;;2.00;1.70;;;;;;;8.96;100.00;99906.50;4931747;29;20558;-53
2023/03/18 07:25:14;;;;;;;11.43;1.93;;;;;;;9.01;100.00;99913.41;4932901;29;20488;-53
2023/03/18 07:27:41;;;;;;;2.80;2.33;;;;;;;9.28;100.00;99913.50;4932613;29;20523;-53
2023/03/18 07:30:08;;;;;;;4.23;3.87;;;;;;;9.24;100.00;99919.84;4921633;28;20564;-53
2023/03/18 07:32:37;;;;;;;7.70;3.40;;;;;;;9.53;100.00;99924.28;4922248;29;20518;-53
2023/03/18 07:35:05;;;;;;;3.17;2.97;;;;;;;9.48;100.00;99921.75;4932447;28;20491;-53
2023/03/18 07:37:32;;;;;;;3.90;3.57;;;;;;;9.65;100.00;99908.84;4931822;29;20472;-53
2023/03/18 07:39:59;;;;;;;3.63;2.30;;;;;;;9.73;100.00;99912.16;4932327;28;20491;-53
2023/03/18 07:42:25;;;;;;;1.90;1.80;;;;;;;9.69;100.00;99913.13;4932415;28;20933;-53
2023/03/18 07:44:52;;;;;;;1.37;1.27;;;;;;;9.69;100.00;99910.47;4916743;28;20880;-52
2023/03/18 07:47:19;;;;;;;1.97;1.87;;;;;;;9.78;100.00;99912.84;4928441;29;20578;-52
2023/03/18 07:49:46;;;;;;;1.83;1.73;;;;;;;10.19;100.00;99920.41;4920596;28;20977;-52
2023/03/18 07:52:13;;;;;;;2.70;2.50;;;;;;;10.15;100.00;99909.03;4925052;29;20592;-53
2023/03/18 07:54:40;;;;;;;5.27;2.90;;;;;;;10.58;100.00;99923.56;4932036;28;20980;-52
2023/03/18 07:57:06;;;;;;;2.90;2.70;;;;;;;10.65;100.00;99917.94;4932060;29;20628;-53
2023/03/18 07:59:33;;;;;;;5.80;3.30;;;;;;;10.64;100.00;99913.56;4931929;29;20507;-53
2023/03/18 08:02:00;;;;;;;3.20;3.03;;;;;;;10.65;100.00;99914.44;4932104;28;20834;-53
2023/03/18 08:04:27;;;;;;;2.57;2.47;;;;;;;10.86;100.00;99915.47;4931573;29;20483;-51
2023/03/18 08:06:54;;;;;;;4.03;3.37;;;;;;;10.86;100.00;99913.69;4928538;28;20528;-53
2023/03/18 08:09:21;;;;;;;9.80;3.60;;;;;;;11.10;100.00;99911.03;4923181;28;20481;-53
2023/03/18 08:11:47;;;;;;;3.53;2.97;;;;;;;11.31;100.00;99920.88;4925612;28;20460;-54
2023/03/18 08:14:14;;;;;;;7.57;4.00;;;;;;;11.26;100.00;99923.72;4932147;28;20456;-54
2023/03/18 08:16:41;;;;;;;3.20;3.00;;;;;;;11.33;100.00;99919.03;4929671;28;20458;-55
2023/03/18 08:19:07;;;;;;;2.90;2.43;;;;;;;11.49;100.00;99917.53;4911336;28;20477;-55
2023/03/18 08:21:34;;;;;;;2.40;2.30;;;;;;;11.64;100.00;99909.88;4927192;29;20835;-53
2023/03/18 08:24:01;;;;;;;2.40;2.30;;;;;;;11.68;100.00;99914.16;4926857;29;20456;-52
2023/03/18 08:26:27;;;;;;;3.27;3.07;;;;;;;11.78;100.00;99913.72;4934771;28;20543;-53
2023/03/18 08:28:54;;;;;;;2.20;2.10;;;;;;;11.93;100.00;99912.31;4934797;29;20566;-53
2023/03/18 08:31:20;;;;;;;3.43;2.53;;;;;;;12.22;100.00;99921.78;4934734;29;20467;-53
2023/03/18 08:33:48;;;;;;;1.90;1.80;;;;;;;12.44;100.00;99921.72;4932366;28;21016;-53
2023/03/18 08:36:15;;;;;;;3.13;2.83;;;;;;;12.55;100.00;99919.47;4922313;29;21040;-54
2023/03/18 08:38:42;;;;;;;5.10;2.17;;;;;;;12.49;100.00;99924.22;4934802;29;20499;-53
2023/03/18 08:41:08;;;;;;;1.90;1.80;;;;;;;12.66;100.00;99925.22;4911081;29;20961;-53
2023/03/18 08:43:35;;;;;;;3.90;1.83;;;;;;;12.79;96.89;99927.38;4930832;29;20934;-53
2023/03/18 08:46:05;;;;;;;1.63;1.20;;;;;;;12.82;96.61;99933.44;4921356;28;20452;-53
2023/03/18 08:48:31;;;;;;;3.20;1.83;;;;;;;12.73;91.88;99934.69;4921668;28;21006;-53
2023/03/18 08:50:58;;;;;;;3.50;1.47;;;;;;;12.85;92.60;99933.28;4934241;29;20456;-53
2023/03/18 08:53:25;;;;;;;2.33;1.30;;;;;;;13.08;92.67;99940.28;4928468;28;20460;-53
2023/03/18 08:55:51;;;;;;;1.07;0.97;;;;;;;13.04;90.08;99938.69;4933310;28;20456;-53
2023/03/18 08:58:18;;;;;;;7.40;1.47;;;;;;;13.07;92.28;99938.56;4934419;28;20830;-53
2023/03/18 09:00:44;;;;;;;0.90;0.87;;;;;;;13.36;89.20;99931.06;4909165;29;20556;-53
2023/03/18 09:03:12;;;;;;;1.33;1.23;;;;;;;13.26;89.33;99936.81;4930258;28;20463;-53
2023/03/18 09:05:39;;;;;;;5.57;1.83;;;;;;;13.28;87.76;99932.28;4909869;29;20539;-53
2023/03/18 09:08:05;;;;;;;13.47;2.07;;;;;;;13.33;84.34;99927.63;4934345;28;20838;-53
2023/03/18 09:10:32;;;;;;;1.40;1.30;;;;;;;13.18;85.72;99938.97;4934415;29;20474;-53
2023/03/18 09:12:59;;;;;;;2.23;1.53;;;;;;;13.41;86.57;99931.72;4929141;28;20554;-53
2023/03/18 09:15:26;;;;;;;5.50;2.30;;;;;;;13.62;86.38;99925.41;4934283;29;20539;-53
2023/03/18 09:17:53;;;;;;;2.33;1.60;;;;;;;13.74;85.49;99918.59;4934316;28;20539;-53
2023/03/18 09:20:37;;;;;;;1.47;1.30;;;;;;;13.79;88.87;99917.44;4934296;29;20983;-53
2023/03/18 09:23:04;;;;;;;1.63;1.37;;;;;;;14.07;86.85;99916.09;4929288;28;20465;-53
2023/03/18 09:25:31;;;;;;;7.30;2.50;;;;;;;13.96;85.89;99913.94;4908886;28;20470;-53
2023/03/18 09:27:57;;;;;;;2.47;2.27;;;;;;;14.00;87.27;99909.34;4930741;28;20496;-53
2023/03/18 09:30:25;;;;;;;2.40;2.30;;;;;;;14.08;87.53;99901.81;4933737;29;20993;-53
2023/03/18 09:32:52;;;;;;;3.73;1.70;;;;;;;14.12;88.49;99912.28;4932784;29;20471;-53
2023/03/18 09:35:19;;;;;;;2.00;1.90;;;;;;;14.19;86.47;99910.16;4933813;29;20501;-52
2023/03/18 09:37:46;;;;;;;1.90;1.57;;;;;;;14.31;84.70;99912.22;4933794;28;20453;-52
2023/03/18 09:40:34;;;;;;;1.60;1.50;;;;;;;14.08;87.94;99912.50;4933901;29;20546;-52
2023/03/18 09:43:12;;;;;;;1.90;1.60;;;;;;;14.09;84.65;99917.75;4909385;29;20456;-53
2023/03/18 09:46:00;;;;;;;0.60;0.57;;;;;;;14.31;84.47;99917.56;4920916;28;20830;-53
2023/03/18 09:48:43;;;;;;;1.53;1.43;;;;;;;14.39;86.54;99922.53;4932627;28;20523;-53
2023/03/18 09:51:24;;;;;;;3.53;1.07;;;;;;;14.70;83.51;99908.50;4909164;29;20452;-53
2023/03/18 09:54:00;;;;;;;1.20;1.10;;;;;;;14.37;84.02;99911.03;4930525;28;20547;-53
2023/03/18 09:56:33;;;;;;;1.40;1.30;;;;;;;14.66;83.15;99913.13;4933697;29;20454;-53
2023/03/18 09:59:06;;;;;;;1.20;1.03;;;;;;;14.85;81.98;99913.06;4933368;29;21003;-53
2023/03/18 10:01:36;;;;;;;1.87;1.07;;;;;;;14.65;82.87;99914.06;4933529;29;20442;-53
2023/03/18 10:04:22;;;;;;;11.37;1.77;;;;;;;15.01;83.94;99911.31;4933782;28;20459;-53
2023/03/18 10:06:55;;;;;;;2.73;1.50;;;;;;;15.36;78.94;99909.44;4933548;28;20458;-53
2023/03/18 10:09:36;;;;;;;0.60;0.57;;;;;;;15.40;78.46;99911.00;4934056;28;20451;-53
2023/03/18 10:12:34;;;;;;;10.23;1.80;;;;;;;15.26;77.73;99910.88;4927752;28;20536;-53
2023/03/18 10:15:16;;;;;;;1.20;0.70;;;;;;;15.52;76.25;99904.09;4931457;29;20455;-53
2023/03/18 10:17:50;;;;;;;1.13;0.83;;;;;;;15.51;74.28;99904.19;4933877;29;20542;-53
2023/03/18 10:20:16;;;;;;;5.80;1.17;;;;;;;15.60;73.33;99901.88;4910472;29;20567;-53
2023/03/18 10:23:13;;;;;;;1.30;1.20;;;;;;;15.70;77.22;99900.41;4933221;29;20852;-53
2023/03/18 10:25:50;;;;;;;2.23;1.10;;;;;;;15.89;77.92;99904.72;4931621;29;20467;-53
2023/03/18 10:28:29;;;;;;;0.70;0.60;;;;;;;15.64;71.69;99906.13;4908346;28;20499;-53
2023/03/18 10:31:05;;;;;;;0.73;0.73;;;;;;;16.27;73.65;99910.59;4933140;28;20459;-53
2023/03/18 10:34:08;;;;;;;2.43;1.50;;;;;;;16.40;72.44;99908.06;4933300;29;20448;-54
2023/03/18 10:36:40;;;;;;;1.30;1.00;;;;;;;16.19;71.52;99904.81;4940406;29;20498;-54
2023/03/18 10:39:27;;;;;;;6.97;1.50;;;;;;;16.46;72.21;99910.41;4931734;29;20468;-53
2023/03/18 10:41:57;;;;;;;1.57;1.47;;;;;;;16.36;71.85;99912.75;4933085;28;20488;-53
2023/03/18 10:44:29;;;;;;;1.07;0.97;;;;;;;16.11;71.34;99912.44;4927440;29;20434;-54
2023/03/18 10:47:05;;;;;;;3.50;2.20;;;;;;;16.42;71.86;99906.13;4926342;29;20900;-53
2023/03/18 10:49:41;;;;;;;0.80;0.80;;;;;;;16.43;70.19;99899.81;4909675;29;20550;-53
2023/03/18 10:52:29;;;;;;;5.80;1.97;;;;;;;16.37;70.66;99900.19;4926423;29;20950;-54
2023/03/18 10:54:56;;;;;;;3.83;1.27;;;;;;;16.57;71.07;99900.72;4932866;29;20972;-54
2023/03/18 10:57:22;;;;;;;2.30;1.20;;;;;;;16.43;71.61;99905.19;4932793;28;20456;-55
2023/03/18 10:59:50;;;;;;;1.50;1.10;;;;;;;16.27;68.59;99906.09;4931841;28;20808;-54
2023/03/18 11:02:37;;;;;;;1.27;1.17;;;;;;;16.02;70.15;99912.94;4932968;28;20523;-54
2023/03/18 11:05:10;;;;;;;1.57;0.90;;;;;;;16.42;70.05;99904.31;4932744;28;20460;-53
2023/03/18 11:08:04;;;;;;;2.60;1.30;;;;;;;16.67;69.29;99910.91;4932919;28;20500;-54
2023/03/18 11:10:38;;;;;;;1.50;1.40;;;;;;;16.52;67.24;99900.16;4932951;28;20464;-54
2023/03/18 11:13:05;;;;;;;5.53;1.57;;;;;;;16.80;68.33;99912.81;4932726;29;20423;-54
2023/03/18 11:15:43;;;;;;;1.27;0.80;;;;;;;16.55;67.05;99908.00;4932676;29;20492;-54
2023/03/18 11:18:15;;;;;;;1.20;1.10;;;;;;;16.71;67.86;99893.69;4932410;29;20444;-54
2023/03/18 11:20:58;;;;;;;2.70;0.90;;;;;;;16.39;67.00;99904.50;4932856;29;20452;-54
2023/03/18 11:23:47;;;;;;;0.90;0.90;;;;;;;16.27;66.98;99907.91;4922924;28;20458;-54
2023/03/18 11:26:25;;;;;;;0.80;0.70;;;;;;;16.17;67.36;99902.22;4924293;29;20460;-53
2023/03/18 11:29:25;;;;;;;10.37;2.17;;;;;;;16.50;66.70;99899.38;4925906;28;20504;-54
2023/03/18 11:31:57;;;;;;;1.93;1.17;;;;;;;16.37;66.71;99897.50;4911897;28;20457;-54
2023/03/18 11:34:25;;;;;;;0.60;0.57;;;;;;;16.23;67.00;99899.19;4914997;28;20522;-54
2023/03/18 11:36:59;;;;;;;0.73;0.57;;;;;;;16.17;68.65;99891.50;4931051;28;21028;-53
2023/03/18 11:39:29;;;;;;;0.60;0.60;;;;;;;16.09;68.30;99887.53;4930672;29;20534;-54
2023/03/18 11:41:58;;;;;;;1.23;1.13;;;;;;;16.21;68.34;99886.81;4932552;29;20459;-54